Portada
METAR-TAF:

METAR-TAF

Aeropuertos :

Ankara Esenboğa, Turquía

Aeropuerto Internacional Esenboğa

latitud: 40-07N, longitud: 032-59E, altitud: 953 m

Observación

El informe se hizo hace 31 minutos, a las 00:50 UTC
Viento 7 kt del norte-noroeste
Temperatura -1°C
Humedad 64%
Presión 1017 hPa
Visibilidad 10 km o más
Nubes dispersas a una altura de 4000 ft
Nubes dispersas a una altura de 10000 ft

METAR: LTAC 240050Z 34007KT 9999 SCT040 SCT100 M01/M07 Q1017 NOSIG RMK RWY21L 35008KT RWY03L 34006KT RWY21R 36008KT

Hora: 04:21 (01:21 UTC)

Pronóstico

El informe se hizo hace 2 horas y 41 minutos, a las 22:40 UTC
Pronóstico válido del 24 a las 00 UTC al 24 a las 24 UTC
Viento 8 kt del norte-noroeste
Visibilidad 10 km o más
Nubes dispersas a una altura de 4000 ft

TAF: LTAC 232240Z 2400/2424 34008KT 9999 SCT040

Observaciones y pronósticos meteorológicos de más de 4000 aeropuertos (mensajes METAR y TAF).

Los puntos amarillos y rojos representan las estaciones disponibles.

Ponga el ratón en el punto deseado para ver el nombre de la estación.

Haga clic para ver las observaciones y los pronósticos meteorológicos.

Para cambiar el mapa : haga clic en los botones verdes con una cruz de color negro para hacer un zoom, en el botón verde con un guión para alejar o en las flechas verdes para mapas adyacentes.


METAR-TAF: